sensor_id;sensor_type;location;lat;lon;timestamp;temperature;humidity
62904;DHT22;49000;50.698;13.322;2023-07-13T00:02:04;17.90;21.40
62904;DHT22;49000;50.698;13.322;2023-07-13T00:04:30;17.90;86.60
62904;DHT22;49000;50.698;13.322;2023-07-13T00:06:55;17.80;99.90
62904;DHT22;49000;50.698;13.322;2023-07-13T00:09:21;17.70;98.50
62904;DHT22;49000;50.698;13.322;2023-07-13T00:11:51;17.60;94.10
62904;DHT22;49000;50.698;13.322;2023-07-13T00:14:17;17.20;99.90
62904;DHT22;49000;50.698;13.322;2023-07-13T00:16:43;17.10;99.90
62904;DHT22;49000;50.698;13.322;2023-07-13T00:19:09;17.10;99.90
62904;DHT22;49000;50.698;13.322;2023-07-13T00:21:35;17.20;99.90
62904;DHT22;49000;50.698;13.322;2023-07-13T00:24:01;17.20;99.90
62904;DHT22;49000;50.698;13.322;2023-07-13T00:26:26;17.30;99.90
62904;DHT22;49000;50.698;13.322;2023-07-13T00:28:52;17.30;99.90
62904;DHT22;49000;50.698;13.322;2023-07-13T00:31:17;17.40;99.90
62904;DHT22;49000;50.698;13.322;2023-07-13T00:33:43;17.40;99.90
62904;DHT22;49000;50.698;13.322;2023-07-13T00:36:10;17.30;99.90
62904;DHT22;49000;50.698;13.322;2023-07-13T00:38:36;17.30;99.90
62904;DHT22;49000;50.698;13.322;2023-07-13T00:41:03;17.20;99.90
62904;DHT22;49000;50.698;13.322;2023-07-13T00:43:30;17.20;99.90
62904;DHT22;49000;50.698;13.322;2023-07-13T00:48:25;17.10;99.90
62904;DHT22;49000;50.698;13.322;2023-07-13T00:50:53;17.10;99.90
62904;DHT22;49000;50.698;13.322;2023-07-13T00:53:20;17.10;99.90
62904;DHT22;49000;50.698;13.322;2023-07-13T00:55:48;17.10;99.90
62904;DHT22;49000;50.698;13.322;2023-07-13T00:58:15;17.00;99.90
62904;DHT22;49000;50.698;13.322;2023-07-13T01:00:41;17.10;99.90
62904;DHT22;49000;50.698;13.322;2023-07-13T01:03:08;17.00;99.90
62904;DHT22;49000;50.698;13.322;2023-07-13T01:05:34;17.10;99.90
62904;DHT22;49000;50.698;13.322;2023-07-13T01:08:01;17.00;99.90
62904;DHT22;49000;50.698;13.322;2023-07-13T01:10:27;17.00;99.90
62904;DHT22;49000;50.698;13.322;2023-07-13T01:12:53;17.00;99.90
62904;DHT22;49000;50.698;13.322;2023-07-13T01:15:42;16.90;99.90
62904;DHT22;49000;50.698;13.322;2023-07-13T01:18:15;16.80;99.90
62904;DHT22;49000;50.698;13.322;2023-07-13T01:23:16;16.80;99.90
62904;DHT22;49000;50.698;13.322;2023-07-13T01:25:41;16.80;99.90
62904;DHT22;49000;50.698;13.322;2023-07-13T01:28:08;16.80;99.90
62904;DHT22;49000;50.698;13.322;2023-07-13T01:30:38;16.70;99.90
62904;DHT22;49000;50.698;13.322;2023-07-13T01:33:06;16.70;99.90
62904;DHT22;49000;50.698;13.322;2023-07-13T01:35:32;16.70;99.90
62904;DHT22;49000;50.698;13.322;2023-07-13T01:37:58;16.70;99.90
62904;DHT22;49000;50.698;13.322;2023-07-13T01:40:25;16.70;99.90
62904;DHT22;49000;50.698;13.322;2023-07-13T01:42:51;16.80;99.90
62904;DHT22;49000;50.698;13.322;2023-07-13T01:45:16;16.80;99.90
62904;DHT22;49000;50.698;13.322;2023-07-13T01:47:42;16.70;99.90
62904;DHT22;49000;50.698;13.322;2023-07-13T01:50:07;16.70;99.90
62904;DHT22;49000;50.698;13.322;2023-07-13T01:52:33;16.80;99.90
62904;DHT22;49000;50.698;13.322;2023-07-13T01:54:58;16.80;99.90
62904;DHT22;49000;50.698;13.322;2023-07-13T01:57:24;16.70;99.90
62904;DHT22;49000;50.698;13.322;2023-07-13T01:59:49;16.80;99.90
62904;DHT22;49000;50.698;13.322;2023-07-13T02:02:15;16.80;99.90
62904;DHT22;49000;50.698;13.322;2023-07-13T02:04:40;16.80;99.90
62904;DHT22;49000;50.698;13.322;2023-07-13T02:07:07;16.80;99.90
62904;DHT22;49000;50.698;13.322;2023-07-13T02:09:33;16.70;99.90
62904;DHT22;49000;50.698;13.322;2023-07-13T02:11:58;16.70;99.90
62904;DHT22;49000;50.698;13.322;2023-07-13T02:14:23;16.80;99.90
62904;DHT22;49000;50.698;13.322;2023-07-13T02:16:49;16.80;99.90
62904;DHT22;49000;50.698;13.322;2023-07-13T02:19:15;16.80;99.90
62904;DHT22;49000;50.698;13.322;2023-07-13T02:21:40;16.80;99.90
62904;DHT22;49000;50.698;13.322;2023-07-13T02:24:06;16.80;99.90
62904;DHT22;49000;50.698;13.322;2023-07-13T02:26:31;16.80;99.90
62904;DHT22;49000;50.698;13.322;2023-07-13T02:28:56;16.80;99.90
62904;DHT22;49000;50.698;13.322;2023-07-13T02:31:22;16.70;99.90
62904;DHT22;49000;50.698;13.322;2023-07-13T02:33:47;16.60;99.90
62904;DHT22;49000;50.698;13.322;2023-07-13T02:36:13;16.70;99.90
62904;DHT22;49000;50.698;13.322;2023-07-13T02:38:41;16.70;99.90
62904;DHT22;49000;50.698;13.322;2023-07-13T02:41:07;16.70;99.90
62904;DHT22;49000;50.698;13.322;2023-07-13T02:43:34;16.70;99.90
62904;DHT22;49000;50.698;13.322;2023-07-13T02:46:01;16.70;99.90
62904;DHT22;49000;50.698;13.322;2023-07-13T02:48:35;16.60;99.90
62904;DHT22;49000;50.698;13.322;2023-07-13T02:51:01;16.60;99.90
62904;DHT22;49000;50.698;13.322;2023-07-13T02:53:26;16.60;99.90
62904;DHT22;49000;50.698;13.322;2023-07-13T02:55:52;16.60;99.90
62904;DHT22;49000;50.698;13.322;2023-07-13T02:58:17;16.50;99.90
62904;DHT22;49000;50.698;13.322;2023-07-13T03:00:43;16.50;99.90
62904;DHT22;49000;50.698;13.322;2023-07-13T03:03:11;16.40;99.90
62904;DHT22;49000;50.698;13.322;2023-07-13T03:05:39;16.40;99.90
62904;DHT22;49000;50.698;13.322;2023-07-13T03:08:05;16.40;99.90
62904;DHT22;49000;50.698;13.322;2023-07-13T03:10:31;16.40;99.90
62904;DHT22;49000;50.698;13.322;2023-07-13T03:12:57;16.50;99.90
62904;DHT22;49000;50.698;13.322;2023-07-13T03:15:22;16.40;99.90
62904;DHT22;49000;50.698;13.322;2023-07-13T03:17:47;16.40;99.90
62904;DHT22;49000;50.698;13.322;2023-07-13T03:20:13;16.40;99.90
62904;DHT22;49000;50.698;13.322;2023-07-13T03:22:39;16.40;99.90
62904;DHT22;49000;50.698;13.322;2023-07-13T03:25:05;16.40;99.90
62904;DHT22;49000;50.698;13.322;2023-07-13T03:27:30;16.40;99.90
62904;DHT22;49000;50.698;13.322;2023-07-13T03:29:56;16.40;99.90
62904;DHT22;49000;50.698;13.322;2023-07-13T03:32:21;16.40;99.90
62904;DHT22;49000;50.698;13.322;2023-07-13T03:34:47;16.40;99.90
62904;DHT22;49000;50.698;13.322;2023-07-13T03:37:12;16.40;99.90
62904;DHT22;49000;50.698;13.322;2023-07-13T03:39:38;16.30;99.90
62904;DHT22;49000;50.698;13.322;2023-07-13T03:42:03;16.30;99.90
62904;DHT22;49000;50.698;13.322;2023-07-13T03:44:29;16.30;99.90
62904;DHT22;49000;50.698;13.322;2023-07-13T03:46:54;16.30;99.90
62904;DHT22;49000;50.698;13.322;2023-07-13T03:49:20;16.40;99.90
62904;DHT22;49000;50.698;13.322;2023-07-13T03:51:45;16.30;99.90
62904;DHT22;49000;50.698;13.322;2023-07-13T03:54:11;16.30;99.90
62904;DHT22;49000;50.698;13.322;2023-07-13T03:56:37;16.40;99.90
62904;DHT22;49000;50.698;13.322;2023-07-13T03:59:02;16.40;99.90
62904;DHT22;49000;50.698;13.322;2023-07-13T04:01:28;16.50;99.90
62904;DHT22;49000;50.698;13.322;2023-07-13T04:03:53;16.50;99.90
62904;DHT22;49000;50.698;13.322;2023-07-13T04:06:21;16.50;99.90
62904;DHT22;49000;50.698;13.322;2023-07-13T04:08:49;16.60;99.90
62904;DHT22;49000;50.698;13.322;2023-07-13T04:11:16;16.50;99.90
62904;DHT22;49000;50.698;13.322;2023-07-13T04:13:41;16.60;99.90
62904;DHT22;49000;50.698;13.322;2023-07-13T04:16:07;16.60;99.90
62904;DHT22;49000;50.698;13.322;2023-07-13T04:18:32;16.60;99.90
62904;DHT22;49000;50.698;13.322;2023-07-13T04:20:58;16.60;99.90
62904;DHT22;49000;50.698;13.322;2023-07-13T04:23:23;16.60;99.90
62904;DHT22;49000;50.698;13.322;2023-07-13T04:25:52;16.60;99.90
62904;DHT22;49000;50.698;13.322;2023-07-13T04:28:23;16.60;99.90
62904;DHT22;49000;50.698;13.322;2023-07-13T04:30:49;16.60;99.90
62904;DHT22;49000;50.698;13.322;2023-07-13T04:33:15;16.60;99.90
62904;DHT22;49000;50.698;13.322;2023-07-13T04:35:45;16.50;99.90
62904;DHT22;49000;50.698;13.322;2023-07-13T04:38:12;16.50;99.90
62904;DHT22;49000;50.698;13.322;2023-07-13T04:40:37;16.50;99.90
62904;DHT22;49000;50.698;13.322;2023-07-13T04:43:03;16.50;99.90
62904;DHT22;49000;50.698;13.322;2023-07-13T04:45:28;16.50;99.90
62904;DHT22;49000;50.698;13.322;2023-07-13T04:47:54;16.50;99.90
62904;DHT22;49000;50.698;13.322;2023-07-13T04:50:20;16.50;99.90
62904;DHT22;49000;50.698;13.322;2023-07-13T04:52:49;16.50;99.90
62904;DHT22;49000;50.698;13.322;2023-07-13T04:55:15;16.40;99.90
62904;DHT22;49000;50.698;13.322;2023-07-13T04:57:40;16.50;99.90
62904;DHT22;49000;50.698;13.322;2023-07-13T05:00:06;16.50;99.90
62904;DHT22;49000;50.698;13.322;2023-07-13T05:02:33;16.40;99.90
62904;DHT22;49000;50.698;13.322;2023-07-13T05:04:59;16.50;99.90
62904;DHT22;49000;50.698;13.322;2023-07-13T05:07:25;16.50;99.90
62904;DHT22;49000;50.698;13.322;2023-07-13T05:09:51;16.50;99.90
62904;DHT22;49000;50.698;13.322;2023-07-13T05:12:17;16.50;99.90
62904;DHT22;49000;50.698;13.322;2023-07-13T05:14:42;16.50;99.90
62904;DHT22;49000;50.698;13.322;2023-07-13T05:17:08;16.60;99.90
62904;DHT22;49000;50.698;13.322;2023-07-13T05:19:34;16.80;99.90
62904;DHT22;49000;50.698;13.322;2023-07-13T05:21:59;16.80;99.90
62904;DHT22;49000;50.698;13.322;2023-07-13T05:24:25;16.90;99.90
62904;DHT22;49000;50.698;13.322;2023-07-13T05:26:51;17.00;99.90
62904;DHT22;49000;50.698;13.322;2023-07-13T05:29:16;17.10;99.90
62904;DHT22;49000;50.698;13.322;2023-07-13T05:31:42;17.10;99.90
62904;DHT22;49000;50.698;13.322;2023-07-13T05:34:07;17.20;99.90
62904;DHT22;49000;50.698;13.322;2023-07-13T05:36:32;17.20;99.90
62904;DHT22;49000;50.698;13.322;2023-07-13T05:38:58;17.30;99.90
62904;DHT22;49000;50.698;13.322;2023-07-13T05:41:23;17.40;99.90
62904;DHT22;49000;50.698;13.322;2023-07-13T05:43:49;17.50;99.90
62904;DHT22;49000;50.698;13.322;2023-07-13T05:46:14;17.50;99.90
62904;DHT22;49000;50.698;13.322;2023-07-13T05:48:40;17.70;99.90
62904;DHT22;49000;50.698;13.322;2023-07-13T05:51:05;17.70;99.90
62904;DHT22;49000;50.698;13.322;2023-07-13T05:53:31;17.80;99.90
62904;DHT22;49000;50.698;13.322;2023-07-13T05:55:56;18.00;99.90
62904;DHT22;49000;50.698;13.322;2023-07-13T05:58:22;18.00;99.90
62904;DHT22;49000;50.698;13.322;2023-07-13T06:00:48;18.00;99.90
62904;DHT22;49000;50.698;13.322;2023-07-13T06:03:14;18.10;99.90
62904;DHT22;49000;50.698;13.322;2023-07-13T06:05:41;18.10;99.90
62904;DHT22;49000;50.698;13.322;2023-07-13T06:08:07;18.20;99.90
62904;DHT22;49000;50.698;13.322;2023-07-13T06:10:36;18.30;99.90
62904;DHT22;49000;50.698;13.322;2023-07-13T06:13:02;18.40;99.90
62904;DHT22;49000;50.698;13.322;2023-07-13T06:15:28;18.60;99.90
62904;DHT22;49000;50.698;13.322;2023-07-13T06:17:54;18.70;99.90
62904;DHT22;49000;50.698;13.322;2023-07-13T06:20:19;18.90;99.90
62904;DHT22;49000;50.698;13.322;2023-07-13T06:22:44;19.20;99.90
62904;DHT22;49000;50.698;13.322;2023-07-13T06:25:10;19.40;99.90
62904;DHT22;49000;50.698;13.322;2023-07-13T06:27:35;19.60;99.90
62904;DHT22;49000;50.698;13.322;2023-07-13T06:30:01;19.80;99.90
62904;DHT22;49000;50.698;13.322;2023-07-13T06:32:27;20.10;99.90
62904;DHT22;49000;50.698;13.322;2023-07-13T06:34:52;20.30;99.90
62904;DHT22;49000;50.698;13.322;2023-07-13T06:37:18;20.30;99.90
62904;DHT22;49000;50.698;13.322;2023-07-13T06:39:44;20.50;99.90
62904;DHT22;49000;50.698;13.322;2023-07-13T06:42:09;20.40;97.80
62904;DHT22;49000;50.698;13.322;2023-07-13T06:44:35;20.40;99.90
62904;DHT22;49000;50.698;13.322;2023-07-13T06:47:00;20.30;99.90
62904;DHT22;49000;50.698;13.322;2023-07-13T06:49:26;20.50;99.90
62904;DHT22;49000;50.698;13.322;2023-07-13T06:51:51;20.80;99.90
62904;DHT22;49000;50.698;13.322;2023-07-13T06:54:17;20.80;61.40
62904;DHT22;49000;50.698;13.322;2023-07-13T06:56:42;21.00;51.70
62904;DHT22;49000;50.698;13.322;2023-07-13T06:59:08;21.10;25.20
62904;DHT22;49000;50.698;13.322;2023-07-13T07:01:33;20.80;28.10
62904;DHT22;49000;50.698;13.322;2023-07-13T07:03:59;20.50;20.50
62904;DHT22;49000;50.698;13.322;2023-07-13T07:06:24;20.70;18.20
62904;DHT22;49000;50.698;13.322;2023-07-13T07:08:51;20.90;15.90
62904;DHT22;49000;50.698;13.322;2023-07-13T07:11:22;21.00;19.30
62904;DHT22;49000;50.698;13.322;2023-07-13T07:13:49;21.50;11.40
62904;DHT22;49000;50.698;13.322;2023-07-13T07:16:14;22.00;5.90
62904;DHT22;49000;50.698;13.322;2023-07-13T07:18:40;22.40;6.30
62904;DHT22;49000;50.698;13.322;2023-07-13T07:21:06;22.80;1.00
62904;DHT22;49000;50.698;13.322;2023-07-13T07:23:31;22.70;1.00
62904;DHT22;49000;50.698;13.322;2023-07-13T07:25:57;22.50;1.00
62904;DHT22;49000;50.698;13.322;2023-07-13T07:28:23;22.10;1.00
62904;DHT22;49000;50.698;13.322;2023-07-13T07:30:49;22.30;1.00
62904;DHT22;49000;50.698;13.322;2023-07-13T07:33:17;22.10;1.00
62904;DHT22;49000;50.698;13.322;2023-07-13T07:35:43;22.10;1.00
62904;DHT22;49000;50.698;13.322;2023-07-13T07:38:09;21.90;1.00
62904;DHT22;49000;50.698;13.322;2023-07-13T07:40:37;22.00;1.00
62904;DHT22;49000;50.698;13.322;2023-07-13T07:43:03;21.80;1.00
62904;DHT22;49000;50.698;13.322;2023-07-13T07:45:28;22.30;1.00
62904;DHT22;49000;50.698;13.322;2023-07-13T07:47:54;22.90;1.00
62904;DHT22;49000;50.698;13.322;2023-07-13T07:50:24;22.60;1.00
62904;DHT22;49000;50.698;13.322;2023-07-13T07:52:50;22.30;1.00
62904;DHT22;49000;50.698;13.322;2023-07-13T07:55:15;22.20;1.00
62904;DHT22;49000;50.698;13.322;2023-07-13T07:57:41;22.40;1.00
62904;DHT22;49000;50.698;13.322;2023-07-13T08:00:07;22.50;1.00
62904;DHT22;49000;50.698;13.322;2023-07-13T08:02:32;22.10;1.00
62904;DHT22;49000;50.698;13.322;2023-07-13T08:04:58;22.30;1.00
62904;DHT22;49000;50.698;13.322;2023-07-13T08:07:23;22.70;1.00
62904;DHT22;49000;50.698;13.322;2023-07-13T08:09:52;22.80;1.00
62904;DHT22;49000;50.698;13.322;2023-07-13T08:12:18;23.30;1.00
62904;DHT22;49000;50.698;13.322;2023-07-13T08:14:43;23.70;1.00
62904;DHT22;49000;50.698;13.322;2023-07-13T08:17:09;23.90;1.00
62904;DHT22;49000;50.698;13.322;2023-07-13T08:19:34;23.90;1.00
62904;DHT22;49000;50.698;13.322;2023-07-13T08:22:00;24.80;1.00
62904;DHT22;49000;50.698;13.322;2023-07-13T08:24:25;25.60;1.00
62904;DHT22;49000;50.698;13.322;2023-07-13T08:26:51;25.70;1.00
62904;DHT22;49000;50.698;13.322;2023-07-13T08:29:17;25.20;1.00
62904;DHT22;49000;50.698;13.322;2023-07-13T08:31:43;25.00;1.00
62904;DHT22;49000;50.698;13.322;2023-07-13T08:34:08;25.00;1.00
62904;DHT22;49000;50.698;13.322;2023-07-13T08:36:34;25.20;1.00
62904;DHT22;49000;50.698;13.322;2023-07-13T08:38:59;25.60;1.00
62904;DHT22;49000;50.698;13.322;2023-07-13T08:41:25;25.00;1.00
62904;DHT22;49000;50.698;13.322;2023-07-13T08:43:56;25.20;1.00
62904;DHT22;49000;50.698;13.322;2023-07-13T08:46:49;25.20;1.00
62904;DHT22;49000;50.698;13.322;2023-07-13T08:49:21;25.20;1.00
62904;DHT22;49000;50.698;13.322;2023-07-13T08:51:55;24.90;1.00
62904;DHT22;49000;50.698;13.322;2023-07-13T08:54:32;25.50;1.00
62904;DHT22;49000;50.698;13.322;2023-07-13T08:57:05;25.60;1.00
62904;DHT22;49000;50.698;13.322;2023-07-13T08:59:35;25.80;1.00
62904;DHT22;49000;50.698;13.322;2023-07-13T09:02:34;25.90;1.00
62904;DHT22;49000;50.698;13.322;2023-07-13T09:08:12;25.70;1.00
62904;DHT22;49000;50.698;13.322;2023-07-13T09:10:48;25.00;1.00
62904;DHT22;49000;50.698;13.322;2023-07-13T09:14:00;24.90;1.00
62904;DHT22;49000;50.698;13.322;2023-07-13T09:16:19;24.90;1.00
62904;DHT22;49000;50.698;13.322;2023-07-13T09:18:50;25.70;1.00
62904;DHT22;49000;50.698;13.322;2023-07-13T09:21:30;26.00;1.00
62904;DHT22;49000;50.698;13.322;2023-07-13T09:23:59;25.80;1.00
62904;DHT22;49000;50.698;13.322;2023-07-13T09:26:28;25.70;1.00
62904;DHT22;49000;50.698;13.322;2023-07-13T09:28:59;25.80;1.00
62904;DHT22;49000;50.698;13.322;2023-07-13T09:31:37;26.00;1.00
62904;DHT22;49000;50.698;13.322;2023-07-13T09:34:09;25.90;1.00
62904;DHT22;49000;50.698;13.322;2023-07-13T09:36:35;25.60;1.00
62904;DHT22;49000;50.698;13.322;2023-07-13T09:39:19;25.80;1.00
62904;DHT22;49000;50.698;13.322;2023-07-13T09:44:34;26.60;1.00
62904;DHT22;49000;50.698;13.322;2023-07-13T09:47:01;27.00;1.00
62904;DHT22;49000;50.698;13.322;2023-07-13T09:49:29;27.10;1.00
62904;DHT22;49000;50.698;13.322;2023-07-13T09:52:06;27.20;1.00
62904;DHT22;49000;50.698;13.322;2023-07-13T09:54:35;27.70;1.00
62904;DHT22;49000;50.698;13.322;2023-07-13T09:57:03;27.90;1.00
62904;DHT22;49000;50.698;13.322;2023-07-13T09:59:31;27.00;1.00
62904;DHT22;49000;50.698;13.322;2023-07-13T10:01:56;26.40;1.00
62904;DHT22;49000;50.698;13.322;2023-07-13T10:04:31;26.40;1.00
62904;DHT22;49000;50.698;13.322;2023-07-13T10:07:08;26.50;1.00
62904;DHT22;49000;50.698;13.322;2023-07-13T10:09:34;26.80;1.00
62904;DHT22;49000;50.698;13.322;2023-07-13T10:12:00;26.00;1.00
62904;DHT22;49000;50.698;13.322;2023-07-13T10:14:25;25.90;1.00
62904;DHT22;49000;50.698;13.322;2023-07-13T10:16:58;26.40;1.00
62904;DHT22;49000;50.698;13.322;2023-07-13T10:19:29;26.50;1.00
62904;DHT22;49000;50.698;13.322;2023-07-13T10:22:01;26.60;1.00
62904;DHT22;49000;50.698;13.322;2023-07-13T10:24:33;27.40;1.00
62904;DHT22;49000;50.698;13.322;2023-07-13T10:27:20;27.80;1.00
62904;DHT22;49000;50.698;13.322;2023-07-13T10:30:01;28.60;1.00
62904;DHT22;49000;50.698;13.322;2023-07-13T10:32:27;28.50;1.00
62904;DHT22;49000;50.698;13.322;2023-07-13T10:34:53;27.80;1.00
62904;DHT22;49000;50.698;13.322;2023-07-13T10:37:27;28.50;1.00
62904;DHT22;49000;50.698;13.322;2023-07-13T10:39:56;29.10;1.00
62904;DHT22;49000;50.698;13.322;2023-07-13T10:42:30;29.40;1.00
62904;DHT22;49000;50.698;13.322;2023-07-13T10:44:57;29.40;1.00
62904;DHT22;49000;50.698;13.322;2023-07-13T10:47:24;29.70;1.00
62904;DHT22;49000;50.698;13.322;2023-07-13T10:49:53;29.20;1.00
62904;DHT22;49000;50.698;13.322;2023-07-13T10:52:48;28.80;1.00
62904;DHT22;49000;50.698;13.322;2023-07-13T10:58:13;29.20;1.00
62904;DHT22;49000;50.698;13.322;2023-07-13T11:00:56;28.90;1.00
62904;DHT22;49000;50.698;13.322;2023-07-13T11:03:23;28.30;1.00
62904;DHT22;49000;50.698;13.322;2023-07-13T11:06:08;28.30;1.00
62904;DHT22;49000;50.698;13.322;2023-07-13T11:08:38;28.30;1.00
62904;DHT22;49000;50.698;13.322;2023-07-13T11:21:21;29.40;1.00
62904;DHT22;49000;50.698;13.322;2023-07-13T11:26:43;28.40;1.00
62904;DHT22;49000;50.698;13.322;2023-07-13T11:31:41;28.10;1.00
62904;DHT22;49000;50.698;13.322;2023-07-13T11:34:13;28.20;1.00
62904;DHT22;49000;50.698;13.322;2023-07-13T11:36:43;26.90;1.00
62904;DHT22;49000;50.698;13.322;2023-07-13T11:39:28;27.30;1.00
62904;DHT22;49000;50.698;13.322;2023-07-13T11:41:59;27.90;1.00
62904;DHT22;49000;50.698;13.322;2023-07-13T11:44:28;28.60;1.00
62904;DHT22;49000;50.698;13.322;2023-07-13T11:46:57;28.40;1.00
62904;DHT22;49000;50.698;13.322;2023-07-13T11:49:26;28.30;1.00
62904;DHT22;49000;50.698;13.322;2023-07-13T11:51:53;27.50;1.00
62904;DHT22;49000;50.698;13.322;2023-07-13T11:54:33;28.50;1.00
62904;DHT22;49000;50.698;13.322;2023-07-13T11:57:12;29.40;1.00
62904;DHT22;49000;50.698;13.322;2023-07-13T11:59:43;29.60;1.00
62904;DHT22;49000;50.698;13.322;2023-07-13T12:02:16;28.50;1.00
62904;DHT22;49000;50.698;13.322;2023-07-13T12:04:42;28.20;1.00
62904;DHT22;49000;50.698;13.322;2023-07-13T12:07:15;29.40;1.00
62904;DHT22;49000;50.698;13.322;2023-07-13T12:09:42;29.20;1.00
62904;DHT22;49000;50.698;13.322;2023-07-13T12:12:11;29.10;1.00
62904;DHT22;49000;50.698;13.322;2023-07-13T12:14:38;27.70;1.00
62904;DHT22;49000;50.698;13.322;2023-07-13T12:17:10;27.90;1.00
62904;DHT22;49000;50.698;13.322;2023-07-13T12:19:36;29.00;1.00
62904;DHT22;49000;50.698;13.322;2023-07-13T12:22:02;30.10;1.00
62904;DHT22;49000;50.698;13.322;2023-07-13T12:24:28;30.10;1.00
62904;DHT22;49000;50.698;13.322;2023-07-13T12:26:58;29.80;1.00
62904;DHT22;49000;50.698;13.322;2023-07-13T12:29:25;30.10;1.00
62904;DHT22;49000;50.698;13.322;2023-07-13T12:31:51;30.90;1.00
62904;DHT22;49000;50.698;13.322;2023-07-13T12:34:20;31.10;1.00
62904;DHT22;49000;50.698;13.322;2023-07-13T12:36:48;31.20;1.00
62904;DHT22;49000;50.698;13.322;2023-07-13T12:41:44;30.60;1.00
62904;DHT22;49000;50.698;13.322;2023-07-13T12:44:28;31.00;1.00
62904;DHT22;49000;50.698;13.322;2023-07-13T12:47:02;31.30;1.00
62904;DHT22;49000;50.698;13.322;2023-07-13T12:49:31;31.70;1.00
62904;DHT22;49000;50.698;13.322;2023-07-13T12:52:01;30.50;1.00
62904;DHT22;49000;50.698;13.322;2023-07-13T12:54:28;30.40;1.00
62904;DHT22;49000;50.698;13.322;2023-07-13T12:56:55;30.10;1.00
62904;DHT22;49000;50.698;13.322;2023-07-13T12:59:26;29.20;1.00
62904;DHT22;49000;50.698;13.322;2023-07-13T13:01:54;29.40;1.00
62904;DHT22;49000;50.698;13.322;2023-07-13T13:04:20;29.90;1.00
62904;DHT22;49000;50.698;13.322;2023-07-13T13:06:47;31.00;1.00
62904;DHT22;49000;50.698;13.322;2023-07-13T13:09:16;30.90;1.00
62904;DHT22;49000;50.698;13.322;2023-07-13T13:11:42;30.90;1.00
62904;DHT22;49000;50.698;13.322;2023-07-13T13:14:08;30.00;1.00
62904;DHT22;49000;50.698;13.322;2023-07-13T13:16:40;30.10;1.00
62904;DHT22;49000;50.698;13.322;2023-07-13T13:19:17;30.40;1.00
62904;DHT22;49000;50.698;13.322;2023-07-13T13:21:44;30.60;1.00
62904;DHT22;49000;50.698;13.322;2023-07-13T13:24:15;30.80;1.00
62904;DHT22;49000;50.698;13.322;2023-07-13T13:26:42;31.90;1.00
62904;DHT22;49000;50.698;13.322;2023-07-13T13:29:13;31.70;1.00
62904;DHT22;49000;50.698;13.322;2023-07-13T13:31:39;31.90;1.00
62904;DHT22;49000;50.698;13.322;2023-07-13T13:34:11;32.10;1.00
62904;DHT22;49000;50.698;13.322;2023-07-13T13:36:37;32.70;1.00
62904;DHT22;49000;50.698;13.322;2023-07-13T13:39:13;33.40;1.00
62904;DHT22;49000;50.698;13.322;2023-07-13T13:41:42;33.80;1.00
62904;DHT22;49000;50.698;13.322;2023-07-13T13:44:09;33.10;1.00
62904;DHT22;49000;50.698;13.322;2023-07-13T13:46:35;31.40;1.00
62904;DHT22;49000;50.698;13.322;2023-07-13T13:49:01;30.90;1.00
62904;DHT22;49000;50.698;13.322;2023-07-13T13:51:26;30.90;1.00
62904;DHT22;49000;50.698;13.322;2023-07-13T13:53:52;29.60;1.00
62904;DHT22;49000;50.698;13.322;2023-07-13T13:56:19;29.30;1.00
62904;DHT22;49000;50.698;13.322;2023-07-13T13:58:45;29.70;1.00
62904;DHT22;49000;50.698;13.322;2023-07-13T14:01:19;29.30;1.00
62904;DHT22;49000;50.698;13.322;2023-07-13T14:03:45;29.00;1.00
62904;DHT22;49000;50.698;13.322;2023-07-13T14:06:14;28.80;1.00
62904;DHT22;49000;50.698;13.322;2023-07-13T14:08:41;28.70;1.00
62904;DHT22;49000;50.698;13.322;2023-07-13T14:11:11;28.40;1.00
62904;DHT22;49000;50.698;13.322;2023-07-13T14:13:42;28.10;1.00
62904;DHT22;49000;50.698;13.322;2023-07-13T14:16:16;28.40;1.00
62904;DHT22;49000;50.698;13.322;2023-07-13T14:18:46;28.40;1.00
62904;DHT22;49000;50.698;13.322;2023-07-13T14:21:17;29.10;1.00
62904;DHT22;49000;50.698;13.322;2023-07-13T14:23:44;29.50;1.00
62904;DHT22;49000;50.698;13.322;2023-07-13T14:26:12;30.10;1.00
62904;DHT22;49000;50.698;13.322;2023-07-13T14:28:45;30.10;1.00
62904;DHT22;49000;50.698;13.322;2023-07-13T14:31:13;29.80;1.00
62904;DHT22;49000;50.698;13.322;2023-07-13T14:33:39;29.60;1.00
62904;DHT22;49000;50.698;13.322;2023-07-13T14:36:28;29.20;1.00
62904;DHT22;49000;50.698;13.322;2023-07-13T14:38:54;29.70;1.00
62904;DHT22;49000;50.698;13.322;2023-07-13T14:41:20;30.20;1.00
62904;DHT22;49000;50.698;13.322;2023-07-13T14:43:46;31.00;1.00
62904;DHT22;49000;50.698;13.322;2023-07-13T14:46:40;31.00;1.00
62904;DHT22;49000;50.698;13.322;2023-07-13T14:49:29;30.80;1.00
62904;DHT22;49000;50.698;13.322;2023-07-13T14:51:58;30.50;1.00
62904;DHT22;49000;50.698;13.322;2023-07-13T14:54:24;31.00;1.00
62904;DHT22;49000;50.698;13.322;2023-07-13T14:56:50;30.90;1.00
62904;DHT22;49000;50.698;13.322;2023-07-13T14:59:16;30.40;1.00
62904;DHT22;49000;50.698;13.322;2023-07-13T15:01:44;30.40;1.00
62904;DHT22;49000;50.698;13.322;2023-07-13T15:04:10;30.00;1.00
62904;DHT22;49000;50.698;13.322;2023-07-13T15:06:59;30.30;1.00
62904;DHT22;49000;50.698;13.322;2023-07-13T15:09:26;30.50;1.00
62904;DHT22;49000;50.698;13.322;2023-07-13T15:11:53;31.00;1.00
62904;DHT22;49000;50.698;13.322;2023-07-13T15:14:19;30.60;1.00
62904;DHT22;49000;50.698;13.322;2023-07-13T15:16:46;30.60;1.00
62904;DHT22;49000;50.698;13.322;2023-07-13T15:19:15;30.90;1.00
62904;DHT22;49000;50.698;13.322;2023-07-13T15:21:41;31.00;1.00
62904;DHT22;49000;50.698;13.322;2023-07-13T15:24:09;30.90;1.00
62904;DHT22;49000;50.698;13.322;2023-07-13T15:26:35;30.30;1.00
62904;DHT22;49000;50.698;13.322;2023-07-13T15:29:01;30.30;1.00
62904;DHT22;49000;50.698;13.322;2023-07-13T15:31:27;30.70;1.00
62904;DHT22;49000;50.698;13.322;2023-07-13T15:33:54;30.20;1.00
62904;DHT22;49000;50.698;13.322;2023-07-13T15:36:21;30.00;1.00
62904;DHT22;49000;50.698;13.322;2023-07-13T15:38:48;29.20;1.00
62904;DHT22;49000;50.698;13.322;2023-07-13T15:41:26;29.60;1.00
62904;DHT22;49000;50.698;13.322;2023-07-13T15:43:55;30.50;1.00
62904;DHT22;49000;50.698;13.322;2023-07-13T15:46:23;31.20;1.00
62904;DHT22;49000;50.698;13.322;2023-07-13T15:48:50;32.20;1.00
62904;DHT22;49000;50.698;13.322;2023-07-13T15:53:48;31.90;1.00
62904;DHT22;49000;50.698;13.322;2023-07-13T15:56:18;31.60;1.00
62904;DHT22;49000;50.698;13.322;2023-07-13T15:58:44;31.80;1.00
62904;DHT22;49000;50.698;13.322;2023-07-13T16:01:10;32.00;1.00
62904;DHT22;49000;50.698;13.322;2023-07-13T16:03:36;31.80;1.00
62904;DHT22;49000;50.698;13.322;2023-07-13T16:06:01;31.40;1.00